Aérodrome :
LOGIN :

S'inscrire | Disclaimer

   EN    FR    IT 

 










Légende :    VFR   VFR Marginal   IFR   IFR Intensif   IFR Très Intensif
Visi : 
Plafond : 
>= 8 km
>= 3000ft
5 à 8 km
1000 à 3000 ft
1500m à 5 km
500 à 1000 ft
800 à 1500m
200 à 500 ft
< 800m
< 200 ft
Symboles :   Orages  Brouillard  Fortes neiges  Fortes précipitations  Vent > 20 kt
SIGMETs :   Divers  Orages  Givrage  Turbulence  Onde Orograph.  Cendres Volcan.







- Altitude de l'aérodrome : 24 ft
- Code IATA : IBZ


LEIB - Ibiza

DERNIER METAR :
  • 221500Z 27010KT 250V330 9999 FEW040 11/02 Q1011 NOSIG

METARs EXPIRÉS :
  • 221430Z 25011KT 9999 FEW040 11/01 Q1011 NOSIG
  • 221400Z 27008KT 240V310 9999 FEW040 12/01 Q1011 NOSIG
  • 221330Z 27009KT 9999 FEW040 11/02 Q1012 NOSIG
  • 221300Z 27010KT 9999 FEW040 11/02 Q1012 NOSIG
  • 221230Z 26011KT 9999 FEW040 12/02 Q1013 NOSIG

TAF AMD TAF LEIB
Valide du 22 à 15h jusqu'au 23 à 15h UTC


221445Z 2215/2315 28011KT 9999 SCT040 TX17/2312Z TN07/2306Z
PROB30
TEMPO 2218/2223 SHRA SCT020TCU BKN025
BECMG 2306/2309 29025KT
TEMPO 2308/2315 28027G39KT
Pas de NOTAMs connus pour ce terrain.
3 SIGMETs publiés pour la FIR Barcelona (LECB) :
 
Onde orographique forte
LECB SIGMET 7 VALID 221300/221700 LEVA
LECB BARCELONA FIR/UIR SEV MTW FCST WI N3830 W00130 - N39 W00030 - N3840 W00010 - N38 W00130 - N3830 W00130 SFC/FL360 STNR NC=
Onde orographique forte
LECB SIGMET 6 VALID 221300/221700 LEVA
LECB BARCELONA FIR/UIR SEV MTW FCST WI N4010 W00130 - N4110 E00020 - N41 E001 - N4010 W00050 - N4010 W00130 SFC/FL360 STNR NC=
Onde orographique forte
LECB SIGMET 5 VALID 221300/221700 LEVA
LECB BARCELONA FIR/UIR SEV MTW FCST N OF LINE N4230 W00010 - N4230 E00110 FL060/360 STNR NC=



MET'MAP, la Météo Aéronautique d'un coup d'oeil ! - Copyright ORBIFLY Décembre 2007 - Disclaimer

ORBIFLY MET'MAP TEAM :

Programmation & Développement : Alexandra Zaïnal
Conception & Développement : Baudouin d'Aumeries
Co-Programmation & Développement : Marc-Olivier Méhu
Soutien technique & logistique : Manuel Goepfert

Contact : metmap@orbifly.com




SOURCES & CREDITS :

   NOAA